Startpagina
METAR-TAF:

METAR-TAF

Vliegvelden :

San Andrés, Colombia

breedte: 12-35N, lengte: 081-43W, hoogte: 1 m

Actueel weer

Dit bericht is 41 minuten geleden gemaakt, om 08:00 UTC
Wind 6 kt uit het noordnoordoosten
Temperatuur 27°C
Vochtigheid 79%
Druk 1012 hPa
Zicht 10 km of meer
Weinig wolken op 1600 ft
Verspreide wolken op 20000 ft

METAR: SKSP 210800Z 03006KT 9999 FEW016 SCT200 27/23 A2987

Tijdstip: 03:41 (08:41 UTC)

Verwachting

Dit bericht is 4 uur en het 11 minuten geleden gemaakt, om 04:30 UTC
Verwachting geldig van 21 om 06 UTC tot 22 om 06 UTC
Wind 7 kt uit het noordnoordoosten
Zicht 10 km of meer
Weinig wolken op 1700 ft
Gebroken wolken op 20000 ft

TAF: SKSP 210430Z 2106/2206 03007KT 9999 FEW017 BKN200 TX31/2118Z TN25/2111Z

Waarnemingen en weersverwachtingen van meer dan 4000 vliegvelden (METAR en TAF).

De beschikbare stations zijn de gele en rode punten op de kaart.

Ga met uw muis naar het station om de naam te zien.

Klik dan om waarnemingen en weersverwachtingen te zien.

kaart wijzigen: klik op de groene knoppen met een zwart kruis om in te zoomen, op de groene knop met een streepje om uit te zoomen of op de groene pijlen voor aangrenzende kaarten.


METAR-TAF: